Millinocket, ME

9:29 PM EST on November 20, 2014 (GMT -0500)
Greenville | Change Station
CLOSE
Current Station
Airport
Location: Greenville,
Elevation: 1401 ft
Nearby Weather Stations

Elev 1401 ft 45.46 °N, 69.60 °W | Updated 33 minutes ago

Overcast
Overcast
19 °F
Feels Like 19 °F
N
0
Wind Variable Wind from North
Gusts 9 mph

Today
High -- | Low -- °F
--% Chance of Precip.
Yesterday
High -- | Low -- °F
Precip. -- in
6:41 AM 3:59 PM
Waning Crescent, 2% visible
Pressure 29.75 in
Visibility -9999.0 miles
Clouds
Dew Point 14 °F
Humidity 81%
Rainfall 0.02 in
Snow Depth Not available.
UV Not available.
Pollen .10 out of 12
Air Quality Not available.
Flu Activity Not available.
METAR KGNR 210156Z AUTO 00000KT M07/M10 A2968 RMK AO1 SLP073 T10721100

More Conditions Fewer Conditions

Pressure 29.75 in
Visibility -9999.0 miles
Clouds
Dew Point 14 °F
Humidity 81%
Rainfall 0.02 in
Snow Depth Not available.
UV Not available.
Pollen .10 out of 12
Air Quality Not available.
Flu Activity Not available.
METAR KGNR 210156Z AUTO 00000KT M07/M10 A2968 RMK AO1 SLP073 T10721100

More Conditions Fewer Conditions

10-Day Weather Forecast

Almanac

Astronomy

Nov. 20, 2014 Rise Set
Actual Time
Civil Twilight
Nautical Twilight
Astronomical Twilight
Moon
Length of Visible Light
Length of Day
Tomorrow will be .
, % of the Moon is Illuminated

Today's Extremes

State Highs State Lows

Community

WunderPhotos

Upload Photos

1,772,586 photos uploaded!

WunderBlogs® & News

Nearby

Air Quality

  Air Quality AQ Index Pollutant
Not available.

Snow Depth

Station Depth Elevation

Earthquake Activity

City Distance Mag. Time & Date
Minimum magnitude displayed is 2.5.

Coastal Water Temperatures

Place Temperature

Nearby Weather Stations